createdAt,value
2019-03-29T00:05:25.909Z,8.78
2019-03-29T00:07:54.523Z,8.80
2019-03-29T00:10:23.145Z,8.87
2019-03-29T00:12:52.063Z,9.04
2019-03-29T00:15:20.696Z,8.98
2019-03-29T00:17:49.505Z,9.12
2019-03-29T00:20:18.111Z,9.08
2019-03-29T00:22:49.498Z,8.99
2019-03-29T00:25:18.113Z,9.08
2019-03-29T00:27:49.902Z,9.04
2019-03-29T00:30:18.455Z,8.98
2019-03-29T00:33:04.746Z,8.98
2019-03-29T00:35:34.124Z,9.13
2019-03-29T00:38:03.081Z,9.03
2019-03-29T00:40:31.748Z,9.10
2019-03-29T00:43:01.187Z,9.08
2019-03-29T00:45:29.831Z,8.94
2019-03-29T00:47:58.437Z,8.83
2019-03-29T00:50:27.418Z,8.93
2019-03-29T00:52:56.068Z,8.93
2019-03-29T00:55:24.678Z,9.10
2019-03-29T00:57:53.286Z,9.05
2019-03-29T01:00:22.102Z,9.00
2019-03-29T01:02:50.668Z,8.86
2019-03-29T01:05:19.322Z,8.85
2019-03-29T01:07:47.939Z,8.86
2019-03-29T01:10:18.201Z,9.00
2019-03-29T01:12:49.471Z,8.95
2019-03-29T01:15:18.205Z,8.93
2019-03-29T01:17:49.997Z,9.00
2019-03-29T01:20:18.649Z,8.92
2019-03-29T01:22:47.210Z,8.83
2019-03-29T01:25:17.385Z,8.87
2019-03-29T01:27:46.319Z,9.01
2019-03-29T01:30:15.134Z,8.95
2019-03-29T01:32:44.880Z,9.01
2019-03-29T01:35:13.783Z,8.84
2019-03-29T01:37:42.405Z,8.92
2019-03-29T01:40:11.309Z,8.80
2019-03-29T01:42:39.865Z,8.91
2019-03-29T01:45:09.763Z,8.96
2019-03-29T01:47:38.366Z,8.81
2019-03-29T01:50:08.132Z,8.90
2019-03-29T01:52:37.403Z,8.78
2019-03-29T01:55:07.227Z,8.95
2019-03-29T01:57:36.126Z,8.92
2019-03-29T02:00:06.433Z,8.95
2019-03-29T02:02:34.994Z,8.85
2019-03-29T02:05:04.917Z,9.00
2019-03-29T02:07:33.490Z,8.92
2019-03-29T02:10:02.072Z,8.91
2019-03-29T02:12:31.018Z,8.99
2019-03-29T02:15:00.047Z,8.91
2019-03-29T02:17:28.666Z,8.94
2019-03-29T02:19:58.104Z,8.97
2019-03-29T02:22:26.716Z,8.85
2019-03-29T02:24:55.337Z,9.00
2019-03-29T02:27:23.945Z,8.91
2019-03-29T02:29:52.560Z,8.88
2019-03-29T02:32:21.432Z,8.92
2019-03-29T02:34:50.093Z,8.91
2019-03-29T02:37:18.706Z,8.88
2019-03-29T02:39:47.418Z,8.83
2019-03-29T02:42:16.362Z,8.81
2019-03-29T02:44:46.809Z,8.86
2019-03-29T02:47:18.187Z,8.89
2019-03-29T02:49:50.195Z,8.86
2019-03-29T02:52:18.753Z,8.71
2019-03-29T02:54:47.403Z,8.76
2019-03-29T02:57:17.652Z,8.84
2019-03-29T02:59:49.438Z,8.89
2019-03-29T03:02:18.048Z,8.82
2019-03-29T03:04:48.304Z,8.86
2019-03-29T03:07:19.972Z,8.83
2019-03-29T03:09:48.701Z,8.91
2019-03-29T03:12:17.324Z,8.89
2019-03-29T03:14:47.462Z,8.84
2019-03-29T03:17:16.233Z,8.76
2019-03-29T03:19:46.560Z,8.75
2019-03-29T03:22:15.185Z,8.76
2019-03-29T03:24:43.801Z,8.75
2019-03-29T03:27:12.410Z,8.77
2019-03-29T03:29:40.998Z,8.66
2019-03-29T03:32:09.569Z,8.68
2019-03-29T03:34:38.203Z,8.68
2019-03-29T03:37:06.792Z,8.73
2019-03-29T03:39:35.497Z,8.86
2019-03-29T03:42:04.207Z,8.79
2019-03-29T03:44:32.818Z,8.70
2019-03-29T03:47:01.427Z,8.80
2019-03-29T03:49:30.042Z,8.72
2019-03-29T03:51:58.854Z,8.79
2019-03-29T03:54:27.667Z,8.78
2019-03-29T03:56:56.589Z,8.87
2019-03-29T03:59:26.527Z,8.78
2019-03-29T04:01:55.131Z,8.77
2019-03-29T04:04:23.841Z,8.72
2019-03-29T04:06:52.451Z,8.74
2019-03-29T04:09:21.046Z,8.75
2019-03-29T04:11:49.624Z,8.86
2019-03-29T04:14:18.287Z,8.83
2019-03-29T04:16:46.899Z,8.82
2019-03-29T04:19:15.511Z,8.87
2019-03-29T04:21:46.450Z,8.79
2019-03-29T04:24:15.215Z,8.71
2019-03-29T04:26:43.824Z,8.77
2019-03-29T04:29:12.430Z,8.78
2019-03-29T04:31:41.040Z,8.63
2019-03-29T04:34:09.655Z,8.73
2019-03-29T04:36:38.265Z,8.75
2019-03-29T04:39:07.080Z,8.74
2019-03-29T04:41:35.706Z,8.74
2019-03-29T04:44:04.597Z,8.75
2019-03-29T04:46:33.324Z,8.87
2019-03-29T04:49:01.936Z,8.89
2019-03-29T04:51:30.813Z,8.87
2019-03-29T04:53:59.459Z,8.97
2019-03-29T04:56:28.071Z,8.96
2019-03-29T04:58:56.681Z,8.81
2019-03-29T05:01:25.358Z,8.90
2019-03-29T05:03:53.946Z,9.01
2019-03-29T05:06:22.611Z,9.07
2019-03-29T05:08:51.216Z,8.96
2019-03-29T05:11:19.772Z,8.99
2019-03-29T05:13:48.435Z,9.06
2019-03-29T05:16:16.995Z,8.98
2019-03-29T05:18:45.659Z,8.88
2019-03-29T05:21:15.154Z,8.87
2019-03-29T05:23:43.804Z,8.93
2019-03-29T05:26:19.836Z,8.96
2019-03-29T05:28:48.737Z,9.00
2019-03-29T05:34:18.700Z,8.97
2019-03-29T05:36:47.262Z,9.07
2019-03-29T05:39:17.623Z,9.10
2019-03-29T05:41:49.313Z,9.18
2019-03-29T05:44:17.972Z,8.98
2019-03-29T05:46:48.177Z,9.06
2019-03-29T05:49:19.870Z,9.00
2019-03-29T05:51:48.478Z,9.07
2019-03-29T05:54:17.089Z,9.06
2019-03-29T05:56:45.696Z,9.22
2019-03-29T05:59:16.999Z,9.12
2019-03-29T06:01:45.569Z,9.16
2019-03-29T06:04:14.513Z,9.22
2019-03-29T06:06:43.116Z,9.25
2019-03-29T06:09:11.832Z,9.18
2019-03-29T06:11:40.462Z,9.05
2019-03-29T06:14:09.049Z,9.31
2019-03-29T06:16:39.301Z,9.42
2019-03-29T06:19:08.143Z,9.34
2019-03-29T06:21:37.766Z,9.28
2019-03-29T06:24:06.376Z,9.47
2019-03-29T06:26:34.984Z,9.44
2019-03-29T06:29:03.576Z,9.36
2019-03-29T06:31:32.520Z,9.49
2019-03-29T06:34:01.128Z,9.74
2019-03-29T06:36:31.800Z,9.74
2019-03-29T06:39:01.741Z,9.81
2019-03-29T06:41:30.296Z,9.90
2019-03-29T06:43:59.293Z,9.86
2019-03-29T06:46:27.915Z,9.90
2019-03-29T06:48:56.950Z,10.09
2019-03-29T06:51:25.500Z,10.21
2019-03-29T06:53:54.173Z,10.32
2019-03-29T06:56:22.812Z,10.38
2019-03-29T06:58:51.415Z,10.21
2019-03-29T07:01:20.032Z,10.43
2019-03-29T07:03:48.747Z,10.46
2019-03-29T07:06:17.359Z,10.47
2019-03-29T07:08:47.548Z,10.44
2019-03-29T07:11:19.406Z,10.49
2019-03-29T07:13:57.492Z,10.44
2019-03-29T07:16:18.368Z,10.50
2019-03-29T07:18:46.976Z,10.52
2019-03-29T07:21:21.534Z,10.62
2019-03-29T07:23:48.056Z,10.69
2019-03-29T07:26:19.488Z,10.78
2019-03-29T07:28:48.447Z,10.84
2019-03-29T07:31:17.113Z,10.91
2019-03-29T07:33:47.264Z,10.97
2019-03-29T07:36:17.424Z,10.98
2019-03-29T07:38:49.019Z,11.00
2019-03-29T07:41:31.174Z,10.99
2019-03-29T07:43:47.900Z,11.00
2019-03-29T07:46:18.160Z,10.93
2019-03-29T07:48:49.612Z,10.87
2019-03-29T07:51:18.196Z,10.84
2019-03-29T07:53:49.740Z,10.81
2019-03-29T07:56:18.351Z,11.17
2019-03-29T07:58:47.375Z,11.01
2019-03-29T08:01:18.919Z,11.02
2019-03-29T08:03:47.580Z,11.04
2019-03-29T08:06:17.241Z,11.25
2019-03-29T08:08:47.358Z,11.46
2019-03-29T08:11:26.124Z,11.16
2019-03-29T08:13:48.231Z,11.37
2019-03-29T08:16:19.470Z,11.55
2019-03-29T08:18:48.389Z,11.84
2019-03-29T08:21:17.624Z,11.96
2019-03-29T08:23:46.212Z,12.05
2019-03-29T08:26:16.497Z,12.11
2019-03-29T08:28:45.464Z,11.89
2019-03-29T08:31:15.856Z,12.24
2019-03-29T08:33:44.826Z,12.16
2019-03-29T08:36:13.465Z,12.23
2019-03-29T08:38:42.082Z,12.09
2019-03-29T08:41:10.723Z,12.06
2019-03-29T08:43:39.844Z,12.14
2019-03-29T08:46:08.572Z,12.36
2019-03-29T08:48:37.179Z,12.60
2019-03-29T08:51:05.919Z,12.67
2019-03-29T08:53:34.558Z,12.69
2019-03-29T08:56:03.302Z,12.74
2019-03-29T08:58:32.027Z,12.68
2019-03-29T09:01:00.840Z,12.68
2019-03-29T09:03:30.025Z,12.67
2019-03-29T09:05:58.664Z,12.79
2019-03-29T09:08:27.633Z,12.84
2019-03-29T09:10:56.386Z,12.80
2019-03-29T09:13:25.148Z,12.70
2019-03-29T09:15:53.812Z,12.78
2019-03-29T09:18:25.740Z,12.74
2019-03-29T09:20:53.127Z,12.52
2019-03-29T09:23:23.363Z,12.67
2019-03-29T09:25:52.499Z,12.72
2019-03-29T09:28:21.112Z,12.96
2019-03-29T09:30:49.715Z,12.98
2019-03-29T09:33:18.323Z,12.93
2019-03-29T09:35:47.037Z,12.52
2019-03-29T09:38:15.666Z,12.58
2019-03-29T09:40:52.202Z,12.92
2019-03-29T09:43:16.568Z,12.78
2019-03-29T09:45:45.714Z,12.71
2019-03-29T09:48:17.305Z,12.65
2019-03-29T09:50:50.449Z,12.73
2019-03-29T09:53:18.212Z,12.58
2019-03-29T09:55:53.163Z,12.44
2019-03-29T09:58:20.049Z,12.43
2019-03-29T10:00:49.268Z,12.33
2019-03-29T10:03:17.997Z,12.40
2019-03-29T10:05:48.115Z,12.51
2019-03-29T10:08:20.062Z,12.67
2019-03-29T10:10:49.017Z,12.82
2019-03-29T10:13:17.626Z,12.56
2019-03-29T10:15:51.282Z,12.56
2019-03-29T10:18:19.581Z,12.79
2019-03-29T10:20:48.421Z,12.85
2019-03-29T10:23:17.069Z,12.93
2019-03-29T10:25:46.169Z,12.72
2019-03-29T10:28:16.900Z,12.45
2019-03-29T10:30:46.862Z,12.51
2019-03-29T10:33:17.251Z,12.30
2019-03-29T10:35:52.293Z,12.73
2019-03-29T10:38:18.378Z,13.09
2019-03-29T10:40:47.344Z,13.20
2019-03-29T10:43:17.581Z,13.29
2019-03-29T10:45:49.393Z,13.24
2019-03-29T10:48:18.214Z,13.24
2019-03-29T10:50:50.889Z,13.13
2019-03-29T10:53:19.467Z,13.06
2019-03-29T10:55:48.418Z,13.27
2019-03-29T10:58:18.641Z,13.23
2019-03-29T11:00:47.275Z,13.40
2019-03-29T11:03:17.349Z,13.58
2019-03-29T11:05:47.474Z,13.69
2019-03-29T11:08:19.400Z,13.66
2019-03-29T11:10:48.104Z,13.82
2019-03-29T11:13:18.301Z,13.74
2019-03-29T11:15:49.665Z,13.59
2019-03-29T11:18:18.231Z,13.70
2019-03-29T11:20:50.377Z,13.81
2019-03-29T11:23:19.087Z,13.99
2019-03-29T11:25:48.841Z,14.24
2019-03-29T11:28:17.753Z,14.05
2019-03-29T11:30:46.779Z,13.91
2019-03-29T11:33:18.168Z,13.61
2019-03-29T11:35:50.174Z,13.73
2019-03-29T11:38:18.734Z,13.58
2019-03-29T11:40:47.290Z,13.45
2019-03-29T11:43:26.454Z,13.59
2019-03-29T11:45:48.015Z,13.74
2019-03-29T11:48:38.772Z,13.78
2019-03-29T11:51:18.629Z,13.60
2019-03-29T11:53:39.880Z,13.58
2019-03-29T11:56:08.317Z,13.47
2019-03-29T11:58:37.028Z,13.63
2019-03-29T12:01:05.751Z,13.82
2019-03-29T12:03:34.555Z,13.70
2019-03-29T12:06:03.165Z,13.78
2019-03-29T12:08:31.747Z,13.45
2019-03-29T12:11:00.794Z,13.42
2019-03-29T12:13:40.475Z,13.91
2019-03-29T12:15:59.760Z,14.09
2019-03-29T12:18:28.369Z,13.78
2019-03-29T12:20:57.077Z,13.79
2019-03-29T12:23:26.002Z,13.97
2019-03-29T12:25:54.719Z,14.11
2019-03-29T12:28:23.335Z,13.72
2019-03-29T12:30:51.949Z,13.65
2019-03-29T12:33:20.991Z,13.92
2019-03-29T12:35:49.703Z,14.13
2019-03-29T12:38:18.275Z,14.27
2019-03-29T12:40:47.552Z,14.42
2019-03-29T12:43:18.860Z,14.57
2019-03-29T12:45:47.469Z,14.52
2019-03-29T12:48:18.963Z,14.56
2019-03-29T12:50:47.575Z,14.41
2019-03-29T12:53:18.948Z,14.03
2019-03-29T12:55:47.658Z,14.21
2019-03-29T12:58:16.339Z,14.39
2019-03-29T13:00:46.732Z,14.41
2019-03-29T13:03:18.235Z,14.38
2019-03-29T13:05:50.081Z,14.39
2019-03-29T13:08:18.634Z,14.43
2019-03-29T13:10:47.432Z,14.41
2019-03-29T13:13:18.821Z,14.13
2019-03-29T13:15:47.541Z,14.09
2019-03-29T13:18:19.136Z,14.10
2019-03-29T13:20:47.858Z,14.17
2019-03-29T13:23:17.123Z,14.39
2019-03-29T13:25:45.801Z,14.35
2019-03-29T13:28:17.204Z,14.31
2019-03-29T13:30:47.460Z,14.17
2019-03-29T13:33:20.767Z,14.23
2019-03-29T13:36:08.630Z,14.12
2019-03-29T13:41:31.173Z,13.83
2019-03-29T13:44:03.783Z,13.52
2019-03-29T13:46:38.327Z,13.58
2019-03-29T13:49:06.904Z,13.60
2019-03-29T13:51:35.979Z,13.39
2019-03-29T13:54:10.006Z,13.59
2019-03-29T13:56:39.050Z,13.59
2019-03-29T13:59:11.556Z,13.57
2019-03-29T14:01:41.008Z,13.57
2019-03-29T14:04:09.611Z,13.73
2019-03-29T14:06:38.431Z,13.76
2019-03-29T14:09:07.990Z,13.82
2019-03-29T14:11:37.100Z,14.09
2019-03-29T14:14:05.710Z,13.98
2019-03-29T14:16:34.324Z,13.99
2019-03-29T14:19:03.197Z,14.10
2019-03-29T14:21:39.058Z,13.93
2019-03-29T14:24:07.016Z,13.75
2019-03-29T14:26:36.035Z,13.70
2019-03-29T14:29:16.971Z,13.69
2019-03-29T14:31:54.187Z,13.91
2019-03-29T14:34:22.675Z,13.89
2019-03-29T14:36:51.292Z,13.76
2019-03-29T14:39:19.900Z,13.52
2019-03-29T14:41:48.622Z,13.44
2019-03-29T14:44:17.474Z,13.40
2019-03-29T14:46:48.827Z,13.49
2019-03-29T14:49:17.378Z,13.39
2019-03-29T14:51:47.604Z,13.39
2019-03-29T14:54:19.496Z,13.39
2019-03-29T14:56:48.105Z,13.52
2019-03-29T14:59:18.200Z,13.59
2019-03-29T15:01:49.508Z,13.43
2019-03-29T15:04:18.351Z,13.50
2019-03-29T15:06:47.174Z,13.50
2019-03-29T15:09:16.101Z,13.18
2019-03-29T15:11:44.921Z,13.30
2019-03-29T15:14:15.524Z,13.20
2019-03-29T15:16:44.605Z,13.17
2019-03-29T15:19:13.210Z,13.09
2019-03-29T15:21:41.824Z,13.24
2019-03-29T15:24:10.454Z,13.17
2019-03-29T15:26:39.049Z,13.42
2019-03-29T15:29:07.671Z,13.45
2019-03-29T15:31:36.287Z,13.48
2019-03-29T15:34:10.815Z,13.42
2019-03-29T15:36:39.515Z,13.29
2019-03-29T15:39:08.378Z,13.23
2019-03-29T15:41:36.954Z,13.10
2019-03-29T15:44:05.499Z,13.11
2019-03-29T15:46:34.116Z,12.92
2019-03-29T15:49:02.671Z,12.98
2019-03-29T15:51:31.349Z,13.03
2019-03-29T15:54:00.082Z,12.88
2019-03-29T15:56:28.712Z,12.87
2019-03-29T15:58:57.272Z,12.89
2019-03-29T16:01:25.854Z,13.04
2019-03-29T16:03:54.492Z,12.99
2019-03-29T16:06:23.074Z,13.08
2019-03-29T16:08:51.629Z,13.09
2019-03-29T16:11:22.529Z,12.91
2019-03-29T16:13:50.506Z,12.84
2019-03-29T16:16:19.115Z,12.83
2019-03-29T16:18:47.745Z,12.45
2019-03-29T16:21:16.729Z,12.60
2019-03-29T16:23:48.368Z,12.55
2019-03-29T16:26:16.993Z,12.56
2019-03-29T16:28:45.952Z,12.46
2019-03-29T16:31:14.703Z,12.55
2019-03-29T16:33:43.837Z,12.49
2019-03-29T16:36:12.575Z,12.48
2019-03-29T16:38:41.223Z,12.54
2019-03-29T16:41:09.770Z,12.39
2019-03-29T16:43:38.359Z,12.26
2019-03-29T16:46:07.386Z,12.15
2019-03-29T16:48:36.035Z,11.99
2019-03-29T16:51:04.660Z,12.02
2019-03-29T16:53:33.310Z,11.99
2019-03-29T16:56:02.341Z,11.91
2019-03-29T16:58:31.395Z,11.87
2019-03-29T17:00:59.992Z,11.81
2019-03-29T17:03:28.623Z,11.82
2019-03-29T17:05:57.259Z,11.73
2019-03-29T17:08:25.828Z,11.61
2019-03-29T17:10:54.388Z,11.56
2019-03-29T17:13:22.976Z,11.60
2019-03-29T17:16:01.845Z,11.61
2019-03-29T17:18:29.089Z,11.58
2019-03-29T17:20:52.743Z,11.49
2019-03-29T17:23:21.374Z,11.47
2019-03-29T17:25:50.251Z,11.42
2019-03-29T17:28:18.814Z,11.32
2019-03-29T17:30:49.010Z,11.40
2019-03-29T17:33:17.583Z,11.31
2019-03-29T17:35:47.857Z,11.24
2019-03-29T17:38:17.497Z,11.13
2019-03-29T17:40:48.790Z,11.06
2019-03-29T17:43:17.369Z,10.94
2019-03-29T17:45:47.431Z,10.87
2019-03-29T17:48:19.456Z,10.78
2019-03-29T17:50:48.379Z,10.67
2019-03-29T17:53:16.935Z,10.60
2019-03-29T17:55:45.507Z,10.61
2019-03-29T17:58:14.231Z,10.54
2019-03-29T18:00:42.826Z,10.47
2019-03-29T18:03:12.144Z,10.39
2019-03-29T18:05:41.062Z,10.36
2019-03-29T18:08:09.844Z,10.30
2019-03-29T18:10:38.654Z,10.26
2019-03-29T18:13:07.464Z,10.11
2019-03-29T18:15:36.665Z,10.07
2019-03-29T18:18:05.441Z,10.02
2019-03-29T18:20:34.155Z,9.99
2019-03-29T18:23:02.712Z,9.82
2019-03-29T18:25:31.736Z,9.65
2019-03-29T18:28:00.758Z,9.46
2019-03-29T18:30:38.878Z,9.30
2019-03-29T18:33:08.117Z,9.21
2019-03-29T18:35:36.835Z,9.15
2019-03-29T18:38:05.894Z,9.05
2019-03-29T18:40:34.534Z,8.97
2019-03-29T18:43:03.231Z,8.88
2019-03-29T18:45:31.866Z,8.80
2019-03-29T18:48:00.617Z,8.69
2019-03-29T18:50:29.247Z,8.63
2019-03-29T18:52:58.188Z,8.59
2019-03-29T18:55:26.767Z,8.46
2019-03-29T18:57:55.699Z,8.35
2019-03-29T19:00:29.610Z,8.31
2019-03-29T19:02:58.240Z,8.21
2019-03-29T19:05:27.714Z,8.13
2019-03-29T19:07:56.249Z,8.07
2019-03-29T19:10:24.804Z,7.99
2019-03-29T19:12:53.420Z,7.92
2019-03-29T19:15:22.440Z,7.81
2019-03-29T19:17:51.154Z,7.71
2019-03-29T19:20:27.216Z,7.65
2019-03-29T19:22:50.003Z,7.57
2019-03-29T19:25:18.574Z,7.52
2019-03-29T19:27:47.586Z,7.46
2019-03-29T19:30:16.733Z,7.52
2019-03-29T19:32:46.166Z,7.52
2019-03-29T19:35:16.629Z,7.49
2019-03-29T19:37:48.901Z,7.40
2019-03-29T19:40:18.545Z,7.30
2019-03-29T19:42:47.705Z,7.19
2019-03-29T19:45:18.958Z,7.11
2019-03-29T19:47:47.617Z,7.03
2019-03-29T19:50:17.607Z,6.93
2019-03-29T19:52:46.191Z,6.82
2019-03-29T19:55:16.486Z,6.78
2019-03-29T19:57:46.591Z,6.74
2019-03-29T20:00:17.224Z,6.79
2019-03-29T20:02:47.394Z,6.71
2019-03-29T20:05:27.466Z,6.62
2019-03-29T20:07:56.380Z,6.63
2019-03-29T20:10:25.426Z,6.55
2019-03-29T20:12:54.275Z,6.58
2019-03-29T20:15:24.392Z,6.52
2019-03-29T20:17:53.144Z,6.46
2019-03-29T20:20:26.278Z,6.37
2019-03-29T20:22:56.003Z,6.30
2019-03-29T20:25:25.105Z,6.28
2019-03-29T20:27:57.991Z,6.18
2019-03-29T20:30:25.253Z,6.08
2019-03-29T20:32:54.224Z,6.01
2019-03-29T20:35:22.765Z,5.93
2019-03-29T20:37:51.851Z,5.90
2019-03-29T20:40:20.399Z,5.92
2019-03-29T20:42:48.979Z,5.91
2019-03-29T20:45:17.600Z,5.84
2019-03-29T20:47:46.322Z,5.86
2019-03-29T20:50:18.372Z,5.85
2019-03-29T20:52:47.410Z,5.83
2019-03-29T20:55:18.723Z,5.81
2019-03-29T20:57:47.308Z,5.74
2019-03-29T21:00:17.078Z,5.67
2019-03-29T21:02:45.724Z,5.67
2019-03-29T21:05:17.161Z,5.68
2019-03-29T21:07:47.262Z,5.66
2019-03-29T21:10:18.802Z,5.58
2019-03-29T21:12:47.582Z,5.55
2019-03-29T21:15:16.320Z,5.53
2019-03-29T21:17:56.687Z,5.53
2019-03-29T21:20:16.992Z,5.55
2019-03-29T21:22:45.578Z,5.48
2019-03-29T21:25:17.029Z,5.42
2019-03-29T21:27:45.612Z,5.38
2019-03-29T21:30:15.808Z,5.42
2019-03-29T21:32:45.516Z,5.44
2019-03-29T21:35:16.195Z,5.43
2019-03-29T21:37:46.512Z,5.45
2019-03-29T21:40:18.494Z,5.39
2019-03-29T21:42:47.076Z,5.36
2019-03-29T21:45:28.065Z,5.33
2019-03-29T21:48:01.534Z,5.21
2019-03-29T21:50:18.385Z,5.21
2019-03-29T21:52:47.453Z,5.18
2019-03-29T21:55:18.822Z,5.16
2019-03-29T21:57:47.397Z,5.15
2019-03-29T22:00:19.053Z,5.20
2019-03-29T22:02:47.606Z,5.19
2019-03-29T22:05:19.227Z,5.22
2019-03-29T22:07:47.778Z,5.16
2019-03-29T22:10:16.511Z,5.13
2019-03-29T22:12:45.134Z,5.07
2019-03-29T22:15:16.392Z,5.06
2019-03-29T22:17:45.016Z,5.02
2019-03-29T22:20:14.008Z,5.02
2019-03-29T22:22:42.569Z,5.10
2019-03-29T22:25:11.277Z,5.05
2019-03-29T22:27:40.225Z,5.01
2019-03-29T22:30:11.164Z,4.99
2019-03-29T22:32:40.110Z,4.93
2019-03-29T22:35:09.229Z,4.92
2019-03-29T22:37:37.850Z,4.90
2019-03-29T22:40:10.233Z,4.90
2019-03-29T22:42:38.788Z,4.83
2019-03-29T22:45:09.484Z,4.82
2019-03-29T22:47:38.204Z,4.81
2019-03-29T22:50:08.188Z,4.72
2019-03-29T22:52:36.757Z,4.72
2019-03-29T22:55:09.561Z,4.67
2019-03-29T22:57:38.121Z,4.60
2019-03-29T23:00:44.016Z,4.54
2019-03-29T23:03:12.711Z,4.53
2019-03-29T23:05:41.288Z,4.53
2019-03-29T23:08:09.992Z,4.47
2019-03-29T23:10:38.574Z,4.47
2019-03-29T23:13:07.137Z,4.41
2019-03-29T23:15:35.923Z,4.39
2019-03-29T23:18:04.549Z,4.39
2019-03-29T23:20:33.135Z,4.41
2019-03-29T23:23:01.688Z,4.49
2019-03-29T23:25:30.276Z,4.42
2019-03-29T23:27:58.902Z,4.41
2019-03-29T23:30:27.481Z,4.41
2019-03-29T23:32:56.042Z,4.45
2019-03-29T23:35:24.619Z,4.46
2019-03-29T23:37:53.250Z,4.38
2019-03-29T23:40:21.835Z,4.31
2019-03-29T23:42:50.404Z,4.34
2019-03-29T23:45:18.984Z,4.34
2019-03-29T23:47:47.537Z,4.47
2019-03-29T23:50:19.225Z,4.65
2019-03-29T23:52:47.780Z,4.65
2019-03-29T23:55:16.435Z,4.66
2019-03-29T23:57:44.988Z,4.31
